Time;durP1;ratioP1;P1;durP2;ratioP2;P2;SDS_P1;SDS_P2;PMS_P1;PMS_P2;Temp;Humidity;BMP_temperature;BMP_pressure;BME280_temperature;BME280_humidity;BME280_pressure;Samples;Min_cycle;Max_cycle;Signal;HPM_P1;HPM_P2
2022/06/05 00:01:36;;;;;;;11.45;8.68;;;;;;;13.53;59.35;101252.34;5032702;28;20045;-64
2022/06/05 00:04:23;;;;;;;16.17;10.07;;;;;;;13.61;59.21;101255.69;5031348;28;20093;-65
2022/06/05 00:07:11;;;;;;;13.50;8.73;;;;;;;13.63;59.12;101255.66;5027957;28;20103;-64
2022/06/05 00:10:01;;;;;;;14.68;8.90;;;;;;;13.68;58.94;101257.28;5029519;28;20061;-64
2022/06/05 00:12:53;;;;;;;10.95;8.02;;;;;;;13.64;59.02;101249.47;5026225;28;20041;-66
2022/06/05 00:15:18;;;;;;;17.83;8.55;;;;;;;13.61;58.75;101254.84;5031945;28;20033;-65
2022/06/05 00:17:43;;;;;;;19.20;10.65;;;;;;;13.50;59.08;101247.97;5031180;28;20037;-66
2022/06/05 00:20:11;;;;;;;14.07;9.45;;;;;;;13.54;58.88;101249.66;5031434;28;20044;-66
2022/06/05 00:22:40;;;;;;;15.70;10.23;;;;;;;13.55;58.75;101253.16;5031649;28;20489;-66
2022/06/05 00:25:07;;;;;;;17.05;9.27;;;;;;;13.55;58.75;101256.66;5031527;28;20045;-66
2022/06/05 00:27:38;;;;;;;18.17;10.73;;;;;;;13.54;58.76;101251.44;5031917;28;20034;-66
2022/06/05 00:30:12;;;;;;;20.13;11.68;;;;;;;13.47;58.83;101255.97;5031255;28;20080;-66
2022/06/05 00:32:43;;;;;;;16.17;9.90;;;;;;;13.43;59.02;101256.91;5028905;28;20037;-66
2022/06/05 00:35:15;;;;;;;16.17;10.55;;;;;;;13.45;58.93;101263.06;5032083;28;20033;-66
2022/06/05 00:38:01;;;;;;;14.82;9.35;;;;;;;13.41;59.29;101264.00;5031930;28;20041;-66
2022/06/05 00:40:30;;;;;;;18.42;10.30;;;;;;;13.41;59.29;101264.00;5030625;28;20048;-67
2022/06/05 00:42:57;;;;;;;15.10;9.13;;;;;;;13.35;59.47;101261.47;5031661;28;20487;-65
2022/06/05 00:45:27;;;;;;;16.90;9.40;;;;;;;13.43;59.20;101261.34;5032130;28;20124;-65
2022/06/05 00:47:52;;;;;;;14.63;8.35;;;;;;;13.40;59.13;101256.97;5026602;28;20058;-65
2022/06/05 00:50:22;;;;;;;11.82;7.72;;;;;;;13.41;59.09;101264.00;5047993;28;20115;-65
2022/06/05 00:52:55;;;;;;;11.20;7.45;;;;;;;13.40;59.22;101259.63;5029196;28;20034;-65
2022/06/05 00:55:22;;;;;;;11.23;8.07;;;;;;;13.37;59.27;101262.34;5032826;28;20088;-66
2022/06/05 00:57:49;;;;;;;9.70;7.13;;;;;;;13.31;59.34;101265.06;5033001;28;20034;-65
2022/06/05 01:00:29;;;;;;;10.77;7.68;;;;;;;13.26;59.44;101261.66;5033225;28;20113;-67
2022/06/05 01:02:56;;;;;;;10.98;7.97;;;;;;;13.31;59.44;101262.44;5033213;28;20052;-68
2022/06/05 01:05:24;;;;;;;12.75;7.82;;;;;;;13.37;59.24;101259.69;5032985;28;20038;-66
2022/06/05 01:07:49;;;;;;;10.60;7.70;;;;;;;13.46;59.06;101266.56;5033226;28;20080;-65
2022/06/05 01:10:17;;;;;;;10.27;7.82;;;;;;;13.40;58.92;101266.66;5031460;28;20034;-64
2022/06/05 01:12:48;;;;;;;13.20;8.13;;;;;;;13.44;58.76;101269.22;5032821;28;20473;-66
2022/06/05 01:15:32;;;;;;;10.10;7.20;;;;;;;13.43;58.72;101267.47;5032720;28;20499;-64
2022/06/05 01:18:27;;;;;;;12.50;8.35;;;;;;;13.28;58.93;101266.03;5035510;28;20137;-64
2022/06/05 01:21:07;;;;;;;10.43;7.43;;;;;;;13.22;58.93;101267.88;5035765;28;20037;-65
2022/06/05 01:23:52;;;;;;;9.52;7.03;;;;;;;13.17;59.17;101259.16;5035911;28;20111;-63
2022/06/05 01:26:30;;;;;;;11.85;8.18;;;;;;;13.14;59.00;101264.50;5036564;28;20044;-64
2022/06/05 01:29:09;;;;;;;11.57;8.00;;;;;;;13.10;59.26;101253.13;5035830;28;20041;-64
2022/06/05 01:31:52;;;;;;;11.07;8.30;;;;;;;13.04;59.48;101247.94;5036786;28;20036;-65
2022/06/05 01:34:37;;;;;;;11.00;7.75;;;;;;;13.10;59.26;101253.13;5036653;28;20025;-65
2022/06/05 01:37:18;;;;;;;12.00;7.18;;;;;;;13.11;58.83;101256.63;5032972;28;20034;-65
2022/06/05 01:39:51;;;;;;;10.63;6.97;;;;;;;13.07;59.21;101254.03;5036497;28;20048;-66
2022/06/05 01:42:28;;;;;;;10.23;7.45;;;;;;;13.12;58.73;101250.44;5036271;28;20083;-66
2022/06/05 01:45:01;;;;;;;10.63;7.75;;;;;;;13.06;58.99;101247.03;5034290;28;20029;-66
2022/06/05 01:47:34;;;;;;;8.82;6.72;;;;;;;13.11;58.88;101239.03;5016628;28;20037;-66
2022/06/05 01:50:20;;;;;;;10.30;7.55;;;;;;;13.13;58.83;101241.66;5016568;28;20370;-66
2022/06/05 01:53:06;;;;;;;10.93;7.80;;;;;;;13.16;58.80;101244.22;5033583;28;20397;-65
2022/06/05 01:55:41;;;;;;;13.55;9.10;;;;;;;13.06;59.24;101231.19;5026808;28;20049;-66
2022/06/05 01:58:11;;;;;;;13.88;9.02;;;;;;;13.03;59.20;101233.88;5034787;28;20072;-65
2022/06/05 02:00:36;;;;;;;11.82;7.78;;;;;;;13.02;59.31;101240.06;5034315;28;20037;-65
2022/06/05 02:03:17;;;;;;;11.77;8.50;;;;;;;12.95;59.47;101227.00;5034746;28;20052;-64
2022/06/05 02:05:53;;;;;;;14.13;7.40;;;;;;;12.94;59.48;101238.47;5034179;28;20507;-64
2022/06/05 02:08:31;;;;;;;10.23;6.82;;;;;;;12.96;59.39;101231.38;5035096;28;20033;-64
2022/06/05 02:11:04;;;;;;;9.98;6.63;;;;;;;12.93;59.13;101234.09;5034160;28;20148;-62
2022/06/05 02:13:30;;;;;;;7.47;5.82;;;;;;;12.92;59.17;101238.47;5029398;28;20434;-63
2022/06/05 02:15:55;;;;;;;12.07;7.55;;;;;;;12.89;59.24;101235.91;5034120;28;20043;-65
2022/06/05 02:18:22;;;;;;;10.13;7.43;;;;;;;12.91;59.11;101238.53;5034890;28;20384;-65
2022/06/05 02:20:48;;;;;;;8.98;5.63;;;;;;;12.89;59.06;101246.47;5033317;28;20041;-63
2022/06/05 02:23:22;;;;;;;9.50;6.72;;;;;;;12.79;59.27;101243.09;5034420;28;20367;-64
2022/06/05 02:25:48;;;;;;;9.10;6.05;;;;;;;12.73;59.52;101251.13;5034064;28;20084;-64
2022/06/05 02:28:16;;;;;;;9.65;7.10;;;;;;;12.73;59.70;101250.25;5032097;28;20042;-64
2022/06/05 02:31:01;;;;;;;11.82;7.65;;;;;;;12.72;59.70;101251.13;5033791;28;20029;-65
2022/06/05 02:33:34;;;;;;;11.80;7.70;;;;;;;12.73;59.47;101250.25;5028733;28;20104;-64
2022/06/05 02:36:02;;;;;;;;;;;;;;;12.85;59.63;101259.72;5032763;28;20037;-64
2022/06/05 02:38:57;;;;;;;9.57;6.88;;;;;;;12.88;59.08;101260.53;5032862;28;19980;-64
2022/06/05 02:42:02;;;;;;;12.05;7.50;;;;;;;12.96;58.48;101261.25;5034109;28;20461;-64
2022/06/05 02:44:40;;;;;;;10.18;6.65;;;;;;;13.04;58.33;101263.78;5003510;28;20037;-65
2022/06/05 02:47:28;;;;;;;9.80;6.93;;;;;;;13.12;57.99;101261.00;5032110;28;20499;-65
2022/06/05 02:50:10;;;;;;;9.55;7.07;;;;;;;13.20;57.74;101261.72;5034336;28;20064;-64
2022/06/05 02:52:36;;;;;;;8.73;6.53;;;;;;;13.26;57.50;101264.31;5029325;28;20425;-65
2022/06/05 02:55:25;;;;;;;9.02;6.25;;;;;;;13.36;57.17;101265.84;5032856;28;20109;-64
2022/06/05 02:57:50;;;;;;;8.48;6.70;;;;;;;13.38;57.01;101266.72;5033950;28;20038;-65
2022/06/05 03:00:22;;;;;;;10.88;8.00;;;;;;;13.31;57.31;101267.72;5033048;28;20040;-65
2022/06/05 03:05:33;;;;;;;8.00;6.05;;;;;;;13.35;57.41;101269.41;5034271;28;20048;-65
2022/06/05 03:07:59;;;;;;;9.95;6.55;;;;;;;13.28;57.66;101278.31;5032770;28;20399;-66
2022/06/05 03:10:25;;;;;;;10.88;6.88;;;;;;;13.25;57.89;101270.47;5033008;28;20109;-66
2022/06/05 03:12:50;;;;;;;9.50;6.82;;;;;;;13.15;58.23;101276.78;5034114;28;20083;-64
2022/06/05 03:15:16;;;;;;;8.90;6.25;;;;;;;13.06;58.42;101280.47;5032118;28;20033;-64
2022/06/05 03:17:42;;;;;;;10.27;6.63;;;;;;;12.96;58.88;101281.50;5032530;28;20045;-65
2022/06/05 03:20:09;;;;;;;9.40;6.95;;;;;;;12.92;59.08;101280.69;5032628;28;20037;-65
2022/06/05 03:22:35;;;;;;;10.52;6.68;;;;;;;13.02;59.05;101281.41;5033597;28;20397;-66
2022/06/05 03:25:01;;;;;;;10.45;6.85;;;;;;;13.17;58.70;101275.00;5031798;28;20048;-65
2022/06/05 03:27:27;;;;;;;9.35;6.47;;;;;;;13.31;58.37;101278.28;5033009;28;20472;-65
2022/06/05 03:29:53;;;;;;;10.00;6.78;;;;;;;13.41;58.18;101281.63;5032831;28;20544;-64
2022/06/05 03:32:18;;;;;;;7.85;6.10;;;;;;;13.35;58.37;101285.22;5032656;28;20167;-65
2022/06/05 03:34:44;;;;;;;9.57;7.05;;;;;;;13.33;58.44;101284.41;5031620;28;20060;-65
2022/06/05 03:37:09;;;;;;;8.77;6.43;;;;;;;13.36;58.44;101283.47;5032907;28;20040;-63
2022/06/05 03:39:35;;;;;;;9.13;6.75;;;;;;;13.49;58.36;101291.13;5033114;28;20021;-65
2022/06/05 03:42:00;;;;;;;9.95;7.32;;;;;;;13.69;58.00;101289.88;5033383;28;20037;-65
2022/06/05 03:44:26;;;;;;;8.85;6.25;;;;;;;13.79;57.69;101289.63;5021102;28;20033;-65
2022/06/05 03:46:52;;;;;;;8.45;5.88;;;;;;;13.89;57.50;101282.41;5029996;28;20465;-64
2022/06/05 03:49:18;;;;;;;9.02;6.57;;;;;;;13.97;57.42;101280.47;5031184;28;20108;-64
2022/06/05 03:51:45;;;;;;;10.30;7.40;;;;;;;14.12;57.26;101291.59;5032438;28;20037;-64
2022/06/05 03:54:11;;;;;;;8.52;6.25;;;;;;;14.25;56.96;101293.09;5025729;28;20424;-64
2022/06/05 03:56:37;;;;;;;10.52;6.25;;;;;;;14.34;56.82;101290.22;5032335;28;20039;-65
2022/06/05 03:59:03;;;;;;;10.80;7.07;;;;;;;14.46;56.67;101299.66;5032972;28;20037;-64
2022/06/05 04:01:28;;;;;;;7.65;5.75;;;;;;;14.55;56.60;101294.19;5032150;28;20051;-64
2022/06/05 04:03:55;;;;;;;9.52;6.30;;;;;;;14.63;56.54;101299.28;5030871;28;20053;-64
2022/06/05 04:06:27;;;;;;;8.80;6.07;;;;;;;14.67;56.48;101298.31;5032817;28;20113;-65
2022/06/05 04:08:54;;;;;;;9.10;6.15;;;;;;;14.76;56.47;101304.25;5032527;28;20029;-64
2022/06/05 05:30:46;;;;;;;7.22;4.85;;;;;;;16.46;60.11;101322.53;5089763;27;20378;-65
2022/06/05 05:33:13;;;;;;;5.43;4.25;;;;;;;16.63;59.90;101314.03;5071468;28;20491;-65
2022/06/05 05:35:38;;;;;;;4.88;3.53;;;;;;;16.88;59.20;101320.34;5086228;28;20143;-64
2022/06/05 05:38:04;;;;;;;4.95;3.92;;;;;;;17.03;58.76;101318.09;5049604;28;20527;-65
2022/06/05 05:43:13;;;;;;;5.88;3.40;;;;;;;17.25;57.70;101308.47;5084877;28;20040;-65
2022/06/05 05:45:39;;;;;;;6.00;3.42;;;;;;;17.32;57.08;101310.00;5080413;28;20399;-65
2022/06/05 05:48:05;;;;;;;4.72;3.10;;;;;;;17.57;56.29;101303.81;5049476;28;20035;-63
2022/06/05 05:50:30;;;;;;;3.60;2.60;;;;;;;17.66;55.66;101311.44;5059216;28;20124;-64
2022/06/05 05:52:55;;;;;;;4.20;3.05;;;;;;;17.81;55.31;101310.06;5089156;28;20064;-64
2022/06/05 05:55:21;;;;;;;3.50;2.45;;;;;;;17.95;54.66;101305.06;5090338;28;20040;-65
2022/06/05 05:57:47;;;;;;;4.28;2.47;;;;;;;18.12;54.18;101304.47;5077223;28;20527;-66
2022/06/05 06:00:16;;;;;;;3.53;2.88;;;;;;;18.20;54.04;101310.34;5087115;28;20471;-65
2022/06/05 06:02:43;;;;;;;3.80;2.65;;;;;;;18.31;53.46;101310.81;5087172;28;20444;-64
2022/06/05 06:05:11;;;;;;;4.43;2.63;;;;;;;18.34;53.16;101304.47;5085520;28;20384;-65
2022/06/05 06:07:37;;;;;;;2.70;2.13;;;;;;;18.47;52.99;101313.69;5100412;28;20029;-65
2022/06/05 06:10:03;;;;;;;4.35;2.63;;;;;;;18.48;52.43;101310.13;5071241;28;20036;-66
2022/06/05 06:12:29;;;;;;;4.03;2.50;;;;;;;18.64;51.91;101305.06;5088114;28;20070;-66
2022/06/05 06:14:54;;;;;;;3.80;2.33;;;;;;;18.74;51.72;101310.91;5087778;28;20056;-66
2022/06/05 06:17:20;;;;;;;3.05;2.50;;;;;;;18.82;51.08;101301.66;5066112;28;20041;-65
2022/06/05 06:19:46;;;;;;;3.30;2.40;;;;;;;18.88;50.88;101304.09;5084592;28;20040;-66
2022/06/05 06:22:11;;;;;;;3.97;2.50;;;;;;;18.96;50.86;101314.44;5073339;28;20479;-66
2022/06/05 06:24:37;;;;;;;3.28;2.30;;;;;;;19.11;50.51;101305.78;5083877;28;20039;-66
2022/06/05 06:27:03;;;;;;;4.40;2.20;;;;;;;19.21;50.21;101306.25;5081951;28;20035;-66
2022/06/05 06:29:29;;;;;;;3.03;2.40;;;;;;;19.32;49.70;101309.31;5081901;28;20048;-66
2022/06/05 06:31:54;;;;;;;3.92;2.50;;;;;;;19.41;49.57;101310.72;5058591;28;20385;-65
2022/06/05 06:34:20;;;;;;;2.88;2.00;;;;;;;19.42;49.17;101310.63;5052624;28;20139;-66
2022/06/05 06:36:45;;;;;;;5.85;2.35;;;;;;;19.48;48.95;101322.84;5061051;28;20044;-65
2022/06/05 06:39:11;;;;;;;3.38;1.92;;;;;;;19.50;48.43;101317.44;5053546;28;20037;-66
2022/06/05 06:41:36;;;;;;;2.50;2.00;;;;;;;19.59;48.24;101311.69;5058288;28;20037;-66
2022/06/05 06:44:03;;;;;;;3.83;2.40;;;;;;;19.72;48.31;101312.94;5056440;28;20041;-65
2022/06/05 06:46:29;;;;;;;2.97;2.05;;;;;;;19.81;47.99;101311.66;5072547;28;20045;-65
2022/06/05 06:48:54;;;;;;;2.88;1.80;;;;;;;20.00;47.67;101306.34;5063947;28;20134;-66
2022/06/05 06:51:19;;;;;;;3.13;1.80;;;;;;;20.02;47.68;101313.31;5057015;28;20106;-66
2022/06/05 06:53:45;;;;;;;4.97;2.35;;;;;;;20.06;47.41;101308.72;5056208;28;20072;-65
2022/06/05 06:56:20;;;;;;;2.40;2.00;;;;;;;20.07;46.94;101313.13;5048093;28;20041;-65
2022/06/05 06:58:46;;;;;;;3.33;1.83;;;;;;;20.21;47.18;101313.34;5069326;28;20066;-66
2022/06/05 07:01:12;;;;;;;2.25;1.77;;;;;;;20.23;47.20;101308.81;5069517;28;20045;-65
2022/06/05 07:03:38;;;;;;;3.40;2.08;;;;;;;20.25;47.06;101306.06;5063736;28;20459;-66
2022/06/05 07:06:07;;;;;;;2.17;1.70;;;;;;;20.29;46.82;101297.81;5065153;28;20055;-65
2022/06/05 07:08:33;;;;;;;4.30;2.10;;;;;;;20.32;46.63;101305.69;5068907;28;20041;-67
2022/06/05 07:10:58;;;;;;;1.95;1.70;;;;;;;20.37;46.81;101308.13;5055933;28;20089;-65
2022/06/05 07:13:25;;;;;;;2.65;1.85;;;;;;;20.46;46.89;101304.16;5056332;28;20037;-65
2022/06/05 07:15:51;;;;;;;3.13;2.00;;;;;;;20.58;46.58;101301.78;5053858;28;20048;-67
2022/06/05 07:18:17;;;;;;;2.88;2.00;;;;;;;20.74;46.48;101304.56;5057919;28;20131;-67
2022/06/05 07:20:43;;;;;;;2.60;1.88;;;;;;;20.80;46.18;101309.63;5040763;28;20036;-67
2022/06/05 07:23:10;;;;;;;3.67;1.98;;;;;;;20.88;46.18;101301.22;5045597;28;20064;-68
2022/06/05 07:25:36;;;;;;;2.97;2.00;;;;;;;21.04;46.02;101291.50;5054355;28;20484;-66
2022/06/05 07:28:02;;;;;;;3.88;1.67;;;;;;;21.09;45.68;101297.47;5058660;28;20091;-66
2022/06/05 07:30:28;;;;;;;2.05;1.42;;;;;;;21.14;45.45;101289.19;5058672;28;20111;-66
2022/06/05 07:32:54;;;;;;;3.47;1.27;;;;;;;21.03;45.31;101292.44;5057256;28;20062;-66
2022/06/05 07:35:20;;;;;;;2.10;1.27;;;;;;;21.03;45.31;101289.78;5057194;28;20443;-66
2022/06/05 07:37:45;;;;;;;1.73;1.42;;;;;;;21.10;44.90;101284.97;5056442;28;20042;-66
2022/06/05 07:40:12;;;;;;;1.60;1.13;;;;;;;21.10;44.90;101280.47;5055752;28;20053;-67
2022/06/05 07:42:39;;;;;;;1.67;1.15;;;;;;;21.20;44.79;101278.22;5052859;28;20431;-66
2022/06/05 07:45:06;;;;;;;1.67;1.27;;;;;;;21.24;44.45;101277.13;5061058;28;20510;-67
2022/06/05 07:47:32;;;;;;;3.17;1.17;;;;;;;21.27;44.10;101276.09;5055620;28;20032;-66
2022/06/05 07:49:57;;;;;;;1.60;1.25;;;;;;;21.33;44.05;101281.13;5060973;28;20442;-67
2022/06/05 07:55:08;;;;;;;1.75;1.27;;;;;;;21.47;43.69;101275.09;5064623;28;20098;-67
2022/06/05 07:57:34;;;;;;;1.70;1.17;;;;;;;21.49;43.92;101278.53;5038320;28;20451;-66
2022/06/05 07:59:59;;;;;;;2.25;1.10;;;;;;;21.46;43.78;101268.84;5056839;28;20058;-64
2022/06/05 08:02:27;;;;;;;1.65;1.10;;;;;;;21.47;44.13;101277.75;5055212;28;20041;-66
2022/06/05 08:04:54;;;;;;;2.38;1.00;;;;;;;21.63;43.51;101282.19;5036614;28;20063;-67
2022/06/05 08:07:23;;;;;;;3.95;1.05;;;;;;;21.80;43.36;101285.78;5053272;28;20037;-66
2022/06/05 08:09:49;;;;;;;1.20;1.10;;;;;;;21.85;43.31;101273.88;5064839;28;20181;-67
2022/06/05 08:12:18;;;;;;;1.95;1.27;;;;;;;21.90;42.63;101276.28;5055936;28;20551;-66
2022/06/05 08:14:46;;;;;;;1.85;1.20;;;;;;;21.83;43.15;101266.88;5071703;28;20028;-68
2022/06/05 08:17:14;;;;;;;3.20;1.33;;;;;;;21.80;43.11;101269.72;5071500;28;20115;-66
2022/06/05 08:19:41;;;;;;;1.95;1.30;;;;;;;21.84;42.98;101271.28;5057603;28;20036;-66
2022/06/05 08:22:09;;;;;;;3.25;1.45;;;;;;;21.98;42.90;101263.34;5072955;28;20021;-66
2022/06/05 08:24:34;;;;;;;2.20;1.08;;;;;;;22.10;42.68;101272.50;5071647;28;20036;-66
2022/06/05 08:27:00;;;;;;;1.35;1.02;;;;;;;22.09;42.70;101268.09;5074131;28;20376;-67
2022/06/05 08:29:25;;;;;;;1.20;0.85;;;;;;;22.11;42.72;101271.59;5072675;28;20075;-67
2022/06/05 08:31:51;;;;;;;1.85;1.02;;;;;;;22.14;42.86;101271.41;5073899;28;20043;-66
2022/06/05 08:34:17;;;;;;;2.33;1.08;;;;;;;22.23;42.61;101273.59;5061432;28;20052;-66
2022/06/05 08:36:42;;;;;;;1.48;1.02;;;;;;;22.36;42.59;101269.28;5065859;28;20040;-66
2022/06/05 08:42:24;;;;;;;3.38;1.00;;;;;;;22.52;40.88;101260.38;5049814;28;20128;-66
2022/06/05 08:45:08;;;;;;;1.35;0.90;;;;;;;22.55;41.93;101262.88;5033204;28;20170;-66
2022/06/05 08:47:47;;;;;;;3.03;1.10;;;;;;;22.32;40.82;101262.38;5045375;28;20083;-66
2022/06/05 08:50:43;;;;;;;1.10;0.60;;;;;;;22.27;39.45;101251.06;5052031;28;20033;-67
2022/06/05 08:53:36;;;;;;;1.45;0.77;;;;;;;22.33;40.29;101258.72;5085778;28;20051;-67
2022/06/05 08:56:05;;;;;;;0.93;0.80;;;;;;;22.46;40.95;101258.91;5071791;28;20558;-66
2022/06/05 08:58:33;;;;;;;1.38;0.77;;;;;;;22.49;40.88;101252.50;5072390;28;20123;-67
2022/06/05 09:01:13;;;;;;;1.10;0.80;;;;;;;22.58;39.67;101257.31;5065340;28;20043;-64
2022/06/05 09:03:56;;;;;;;2.28;0.95;;;;;;;22.71;40.15;101254.81;5057333;28;20036;-67
2022/06/05 09:06:39;;;;;;;0.65;0.60;;;;;;;22.77;39.54;101255.28;5065779;28;20127;-67
2022/06/05 09:09:09;;;;;;;;;;;;;;;22.82;38.19;101257.69;5057988;28;20033;-68
2022/06/05 09:11:45;;;;;;;1.38;0.60;;;;;;;22.85;39.72;101260.19;5055588;28;19916;-67
2022/06/05 09:14:31;;;;;;;0.90;0.50;;;;;;;22.92;37.97;101255.38;5058951;28;20024;-68
2022/06/05 09:17:05;;;;;;;0.85;0.50;;;;;;;23.02;38.56;101252.06;5057502;28;20028;-68
2022/06/05 09:19:31;;;;;;;0.93;0.50;;;;;;;23.05;38.32;101256.38;5063335;28;20115;-67
2022/06/05 09:22:11;;;;;;;1.25;0.63;;;;;;;22.76;37.86;101260.75;5068775;28;20532;-67
2022/06/05 09:25:14;;;;;;;1.58;0.70;;;;;;;22.77;39.06;101257.97;5059324;28;20032;-68
2022/06/05 09:28:01;;;;;;;;;;;;;;;22.84;38.97;101255.81;5051722;28;20021;-67
2022/06/05 09:30:51;;;;;;;1.10;0.70;;;;;;;22.86;38.46;101252.09;5054678;28;19921;-66
2022/06/05 09:33:22;;;;;;;0.95;0.50;;;;;;;23.00;39.14;101245.06;5062368;28;20036;-65
2022/06/05 09:35:54;;;;;;;0.90;0.60;;;;;;;23.11;38.84;101239.94;5054402;28;20032;-66
2022/06/05 09:38:52;;;;;;;1.10;0.60;;;;;;;23.19;38.19;101242.16;5063004;28;20032;-66
2022/06/05 09:41:59;;;;;;;1.05;0.75;;;;;;;23.27;37.50;101240.72;5067047;28;20092;-66
2022/06/05 09:44:45;;;;;;;0.98;0.45;;;;;;;23.49;37.82;101250.13;5053055;28;20041;-66
2022/06/05 09:47:35;;;;;;;0.85;0.57;;;;;;;23.63;37.67;101247.44;5058832;28;20037;-67
2022/06/05 09:50:07;;;;;;;0.82;0.60;;;;;;;23.77;37.76;101238.56;5070441;28;20546;-66
2022/06/05 09:52:33;;;;;;;0.85;0.70;;;;;;;23.80;37.39;101241.91;5059768;28;20032;-67
2022/06/05 09:55:42;;;;;;;1.00;0.50;;;;;;;23.70;36.18;101240.78;5068051;28;20046;-67
2022/06/05 09:58:27;;;;;;;0.75;0.50;;;;;;;23.77;36.75;101236.72;5041408;28;20480;-67
2022/06/05 10:00:57;;;;;;;0.75;0.50;;;;;;;23.81;36.64;101246.31;5055901;28;20380;-68
2022/06/05 10:03:37;;;;;;;1.45;0.55;;;;;;;23.90;36.57;101233.25;5054909;28;20032;-68
2022/06/05 10:06:14;;;;;;;0.50;0.40;;;;;;;24.01;35.64;101220.00;5062078;28;20565;-66
2022/06/05 10:08:44;;;;;;;1.30;0.60;;;;;;;23.99;36.63;101220.13;5057561;28;20499;-67
2022/06/05 10:11:50;;;;;;;0.88;0.60;;;;;;;23.84;36.78;101224.66;5057661;28;20054;-68
2022/06/05 10:14:34;;;;;;;1.13;0.80;;;;;;;23.78;35.92;101227.75;4983845;28;20036;-68
2022/06/05 10:17:24;;;;;;;1.85;0.98;;;;;;;23.95;36.61;101220.44;5059475;28;20039;-68
2022/06/05 10:20:15;;;;;;;0.75;0.60;;;;;;;23.95;37.24;101209.69;5059593;28;20021;-67
2022/06/05 10:22:58;;;;;;;2.38;0.70;;;;;;;24.03;37.19;101207.38;5059071;28;20036;-67
2022/06/05 10:25:37;;;;;;;0.80;0.63;;;;;;;24.13;37.40;101213.84;5058474;28;20028;-68
2022/06/05 10:28:18;;;;;;;2.65;0.60;;;;;;;24.24;36.70;101215.84;5070376;28;20044;-68
2022/06/05 10:31:08;;;;;;;1.05;0.60;;;;;;;24.50;36.16;101216.84;5071746;28;20149;-67
2022/06/05 10:33:53;;;;;;;1.00;0.68;;;;;;;24.65;36.12;101215.78;5067961;28;20112;-67
2022/06/05 10:36:26;;;;;;;0.90;0.57;;;;;;;24.72;36.13;101206.34;5058372;28;20055;-67
2022/06/05 10:39:13;;;;;;;0.90;0.70;;;;;;;24.63;35.40;101198.06;5061404;28;20025;-66
2022/06/05 10:41:42;;;;;;;2.97;0.80;;;;;;;24.65;36.18;101209.56;5057214;28;20124;-67
2022/06/05 10:44:19;;;;;;;1.15;0.50;;;;;;;24.65;35.12;101205.03;5054546;28;20132;-67
2022/06/05 10:47:11;;;;;;;0.90;0.70;;;;;;;24.78;35.66;101199.72;5056085;28;20484;-67
2022/06/05 10:49:58;;;;;;;1.52;0.80;;;;;;;24.90;35.58;101203.41;5055921;28;20028;-66
2022/06/05 10:52:47;;;;;;;1.85;0.80;;;;;;;24.69;34.97;101201.19;5055798;28;20131;-67
2022/06/05 10:55:39;;;;;;;1.92;0.70;;;;;;;24.78;35.67;101203.25;5065864;28;20037;-66
2022/06/05 10:58:08;;;;;;;1.65;0.50;;;;;;;24.89;35.06;101198.97;5048198;28;20044;-66
2022/06/05 11:00:43;;;;;;;1.00;0.60;;;;;;;25.01;35.14;101192.75;5058706;28;20024;-66
2022/06/05 11:03:19;;;;;;;0.60;0.45;;;;;;;25.20;34.97;101195.91;5056595;28;20106;-66
2022/06/05 11:06:02;;;;;;;1.20;0.50;;;;;;;25.32;33.87;101194.19;5069228;28;20365;-66
2022/06/05 11:08:59;;;;;;;0.90;0.50;;;;;;;25.34;33.07;101188.72;5069621;28;20490;-66
2022/06/05 11:14:46;;;;;;;0.65;0.50;;;;;;;25.44;32.89;101192.44;5070265;28;20165;-66
2022/06/05 11:17:24;;;;;;;0.80;0.38;;;;;;;25.51;33.36;101188.38;5068508;28;20037;-66
2022/06/05 11:19:58;;;;;;;0.82;0.50;;;;;;;25.61;32.67;101183.16;5068612;28;20476;-66
2022/06/05 11:22:27;;;;;;;0.98;0.50;;;;;;;25.63;32.98;101186.63;5057572;28;20040;-67
2022/06/05 11:24:57;;;;;;;0.95;0.57;;;;;;;25.69;32.79;101176.25;5057326;28;20040;-66
2022/06/05 11:27:47;;;;;;;0.50;0.40;;;;;;;25.75;32.21;101180.34;5055964;28;20033;-66
2022/06/05 11:30:32;;;;;;;0.50;0.40;;;;;;;25.83;31.99;101167.22;5055005;28;20064;-66
2022/06/05 11:33:23;;;;;;;1.63;0.50;;;;;;;25.91;31.31;101169.34;5061249;28;20486;-67
2022/06/05 11:36:13;;;;;;;0.77;0.50;;;;;;;25.91;31.32;101163.97;5055607;28;20040;-67
2022/06/05 11:39:20;;;;;;;0.88;0.40;;;;;;;25.93;31.55;101162.91;5070697;28;20384;-67
2022/06/05 11:42:01;;;;;;;0.65;0.47;;;;;;;25.96;31.53;101159.09;5052752;28;20033;-67
2022/06/05 11:45:22;;;;;;;0.52;0.40;;;;;;;26.03;31.13;101163.06;5059369;28;20036;-65
2022/06/05 11:47:57;;;;;;;1.10;0.60;;;;;;;25.83;31.34;101151.06;5022993;28;20060;-65
2022/06/05 11:50:32;;;;;;;0.80;0.57;;;;;;;25.83;32.04;101150.22;5063464;28;20040;-66
2022/06/05 11:53:16;;;;;;;0.68;0.40;;;;;;;25.90;32.48;101143.41;5080103;28;20161;-66
2022/06/05 11:55:46;;;;;;;0.98;0.50;;;;;;;25.91;31.42;101131.66;5061345;28;20404;-68
2022/06/05 11:58:19;;;;;;;0.60;0.35;;;;;;;25.94;31.68;101131.44;5064708;28;20032;-68
2022/06/05 12:00:53;;;;;;;0.55;0.43;;;;;;;25.90;31.62;101135.34;5073417;28;20029;-68
2022/06/05 12:03:32;;;;;;;0.57;0.30;;;;;;;25.96;30.29;101145.63;5059083;28;20107;-67
2022/06/05 12:06:19;;;;;;;0.68;0.40;;;;;;;25.83;31.40;101139.44;5076893;28;20475;-68
2022/06/05 12:08:51;;;;;;;0.73;0.60;;;;;;;25.72;31.46;101134.81;5069057;28;20025;-66
2022/06/05 12:11:25;;;;;;;1.17;0.65;;;;;;;25.80;32.23;101144.06;5059591;28;20396;-67
2022/06/05 12:14:25;;;;;;;0.70;0.50;;;;;;;25.83;31.60;101136.75;5068157;28;20040;-66
2022/06/05 12:17:12;;;;;;;0.70;0.45;;;;;;;25.89;30.92;101134.44;5058185;28;20412;-66
2022/06/05 12:19:44;;;;;;;0.60;0.40;;;;;;;25.96;31.63;101130.34;5054840;28;20472;-66
2022/06/05 12:22:32;;;;;;;1.85;0.45;;;;;;;25.86;31.25;101128.47;5054258;28;20051;-66
2022/06/05 12:25:05;;;;;;;0.60;0.50;;;;;;;25.82;32.63;101132.34;5057400;28;20040;-66
2022/06/05 12:27:44;;;;;;;1.20;0.60;;;;;;;25.79;31.95;101128.91;5051242;28;20029;-66
2022/06/05 12:30:26;;;;;;;1.00;0.50;;;;;;;25.77;31.82;101125.47;5058443;28;20190;-66
2022/06/05 12:33:02;;;;;;;0.70;0.60;;;;;;;25.54;33.09;101127.13;5055573;28;20068;-65
2022/06/05 12:35:41;;;;;;;1.02;0.50;;;;;;;25.64;33.10;101129.13;5067615;28;20033;-65
2022/06/05 12:38:23;;;;;;;0.70;0.40;;;;;;;25.76;32.32;101129.09;5061815;28;20119;-65
2022/06/05 12:41:20;;;;;;;1.63;0.50;;;;;;;25.83;31.04;101118.78;5061731;28;20051;-66
2022/06/05 12:44:23;;;;;;;0.55;0.40;;;;;;;25.88;32.11;101115.72;5028700;28;20051;-67
2022/06/05 12:47:07;;;;;;;1.40;0.52;;;;;;;25.96;32.08;101114.19;5058684;28;20487;-66
2022/06/05 12:49:56;;;;;;;0.93;0.35;;;;;;;26.03;31.33;101103.81;5064499;28;20045;-66
2022/06/05 12:52:55;;;;;;;4.13;0.60;;;;;;;25.94;30.20;101108.06;5054197;28;20028;-66
2022/06/05 12:55:32;;;;;;;0.57;0.40;;;;;;;26.02;30.59;101107.50;5059410;28;20596;-67
2022/06/05 12:58:07;;;;;;;0.60;0.50;;;;;;;25.92;30.98;101106.44;5062985;28;20032;-67
2022/06/05 13:01:02;;;;;;;0.70;0.45;;;;;;;25.97;31.59;101109.66;5068057;28;20056;-67
2022/06/05 13:03:45;;;;;;;0.75;0.60;;;;;;;25.99;32.05;101103.19;5068881;28;20379;-68
2022/06/05 13:06:17;;;;;;;1.45;0.50;;;;;;;25.72;32.43;101107.91;5055730;28;20087;-68
2022/06/05 13:08:54;;;;;;;0.85;0.50;;;;;;;25.72;32.29;101098.00;5060837;28;20041;-66
2022/06/05 13:11:24;;;;;;;0.50;0.40;;;;;;;25.78;32.87;101100.28;5054201;28;20491;-65
2022/06/05 13:14:09;;;;;;;0.88;0.40;;;;;;;25.83;31.28;101094.53;5058256;28;20070;-68
2022/06/05 13:16:34;;;;;;;0.82;0.50;;;;;;;25.86;32.09;101097.00;5064395;28;20029;-67
2022/06/05 13:19:22;;;;;;;0.83;0.50;;;;;;;25.94;31.38;101096.44;5062175;28;20029;-68
2022/06/05 13:21:55;;;;;;;0.60;0.50;;;;;;;26.03;32.21;101109.22;5061773;28;20293;-68
2022/06/05 13:24:31;;;;;;;0.95;0.43;;;;;;;26.05;31.87;101115.31;5066361;28;20025;-65
2022/06/05 13:27:11;;;;;;;0.57;0.38;;;;;;;26.08;31.00;101098.09;5067099;28;20047;-68
2022/06/05 13:29:53;;;;;;;0.55;0.40;;;;;;;26.09;31.14;101099.78;5055673;28;20117;-68
2022/06/05 13:32:57;;;;;;;0.77;0.40;;;;;;;26.04;32.82;101102.84;5058917;28;20028;-67